Weather at Valle Amblés

Public forecast

Using degrees Celsius for public forecast. Weather courtesy of forecast.io.

Closest aviation weather report (METAR) to Valle Amblés

Closest report is Salamanca Airport, 38.5 nm (71.3 km) WNW. Retrieved 2021/04/17 11:00 UTC (34 minutes ago):

LESA 171100Z 07008KT 010V110 CAVOK 09/M04 Q1021

Closest aviation forecast (TAF) to Valle Amblés

Closest forecast is Salamanca Airport, 38.5 nm (71.3 km) WNW. Retrieved 2021/04/17 09:27 UTC (2 hours ago):

TAF LESA 170800Z 1709/1809 06008KT CAVOK TX14/1715Z TNM01/1806Z